createdAt,value
2022-09-30T00:00:59.571Z,13.73
2022-09-30T00:03:29.081Z,13.93
2022-09-30T00:05:56.986Z,13.18
2022-09-30T00:08:24.316Z,13.45
2022-09-30T00:11:01.683Z,12.90
2022-09-30T00:13:28.866Z,13.57
2022-09-30T00:19:25.261Z,11.90
2022-09-30T00:21:52.443Z,12.10
2022-09-30T00:24:19.605Z,11.23
2022-09-30T00:26:46.921Z,11.95
2022-09-30T00:29:14.117Z,10.60
2022-09-30T00:31:41.511Z,10.38
2022-09-30T00:34:09.106Z,11.18
2022-09-30T00:36:36.850Z,9.88
2022-09-30T00:39:04.724Z,10.55
2022-09-30T00:41:32.014Z,10.50
2022-09-30T00:43:59.162Z,11.13
2022-09-30T00:46:38.103Z,11.35
2022-09-30T00:49:17.403Z,11.18
2022-09-30T00:51:47.152Z,11.75
2022-09-30T00:54:17.335Z,12.82
2022-09-30T00:56:52.431Z,11.60
2022-09-30T00:59:25.194Z,12.05
2022-09-30T01:01:52.568Z,12.30
2022-09-30T01:04:21.488Z,11.52
2022-09-30T01:06:49.249Z,11.82
2022-09-30T01:09:16.614Z,12.85
2022-09-30T01:11:43.786Z,12.38
2022-09-30T01:14:13.314Z,11.38
2022-09-30T01:16:59.467Z,11.20
2022-09-30T01:19:29.637Z,10.85
2022-09-30T01:22:05.692Z,11.45
2022-09-30T01:24:51.535Z,12.43
2022-09-30T01:27:42.921Z,11.95
2022-09-30T01:32:45.507Z,12.95
2022-09-30T01:35:21.750Z,12.43
2022-09-30T01:38:04.109Z,14.02
2022-09-30T01:40:31.238Z,13.68
2022-09-30T01:43:17.297Z,13.05
2022-09-30T01:45:50.629Z,13.57
2022-09-30T01:48:17.873Z,13.13
2022-09-30T01:50:53.911Z,14.48
2022-09-30T01:53:40.016Z,13.80
2022-09-30T01:56:14.040Z,14.32
2022-09-30T01:58:48.421Z,14.05
2022-09-30T02:01:27.183Z,14.43
2022-09-30T02:03:59.035Z,13.63
2022-09-30T02:06:28.854Z,13.85
2022-09-30T02:09:07.894Z,13.60
2022-09-30T02:11:39.133Z,14.57
2022-09-30T02:14:16.545Z,14.18
2022-09-30T02:16:43.802Z,13.82
2022-09-30T02:19:14.021Z,14.18
2022-09-30T02:21:42.592Z,14.33
2022-09-30T02:24:12.164Z,13.73
2022-09-30T02:26:41.569Z,14.38
2022-09-30T02:29:16.293Z,13.27
2022-09-30T02:31:44.713Z,13.60
2022-09-30T02:34:13.793Z,13.77
2022-09-30T02:36:45.397Z,14.43
2022-09-30T02:39:21.689Z,14.90
2022-09-30T02:41:52.147Z,14.63
2022-09-30T02:44:19.737Z,14.60
2022-09-30T02:46:49.862Z,15.55
2022-09-30T02:49:30.889Z,14.15
2022-09-30T02:52:07.987Z,14.65
2022-09-30T02:54:54.780Z,15.40
2022-09-30T02:57:21.899Z,14.75
2022-09-30T02:59:52.192Z,15.32
2022-09-30T03:02:20.385Z,16.53
2022-09-30T03:04:48.713Z,17.45
2022-09-30T03:07:16.052Z,16.50
2022-09-30T03:09:43.405Z,16.05
2022-09-30T03:12:16.665Z,16.70
2022-09-30T03:14:49.892Z,15.88
2022-09-30T03:17:37.278Z,16.13
2022-09-30T03:20:33.759Z,16.92
2022-09-30T03:23:06.699Z,17.60
2022-09-30T03:25:52.091Z,17.00
2022-09-30T03:28:43.249Z,16.35
2022-09-30T03:31:17.727Z,16.25
2022-09-30T03:33:51.627Z,17.55
2022-09-30T03:36:24.863Z,16.63
2022-09-30T03:38:54.744Z,18.48
2022-09-30T03:41:24.628Z,17.50
2022-09-30T03:43:56.462Z,17.83
2022-09-30T03:46:29.837Z,20.50
2022-09-30T03:48:59.332Z,22.17
2022-09-30T03:51:26.847Z,21.42
2022-09-30T03:53:55.368Z,21.23
2022-09-30T03:56:30.177Z,20.88
2022-09-30T03:58:57.616Z,21.05
2022-09-30T04:01:25.154Z,23.15
2022-09-30T04:03:53.054Z,24.92
2022-09-30T04:06:21.529Z,26.58
2022-09-30T04:08:49.026Z,31.67
2022-09-30T04:11:16.439Z,29.42
2022-09-30T04:13:43.578Z,26.02
2022-09-30T04:16:10.792Z,30.95
2022-09-30T04:18:38.719Z,34.08
2022-09-30T04:21:07.231Z,31.23
2022-09-30T04:23:41.134Z,28.10
2022-09-30T04:26:09.186Z,31.90
2022-09-30T04:28:36.743Z,33.22
2022-09-30T04:31:05.047Z,37.97
2022-09-30T04:33:32.862Z,31.85
2022-09-30T04:36:00.612Z,30.77
2022-09-30T04:38:28.495Z,30.95
2022-09-30T04:40:55.873Z,31.00
2022-09-30T04:43:23.580Z,28.27
2022-09-30T04:45:52.787Z,33.33
2022-09-30T04:48:23.475Z,26.38
2022-09-30T04:50:51.182Z,29.35
2022-09-30T04:53:19.006Z,27.35
2022-09-30T04:55:46.512Z,29.85
2022-09-30T04:58:13.906Z,29.08
2022-09-30T05:00:41.124Z,33.13
2022-09-30T05:03:08.379Z,28.90
2022-09-30T05:05:35.541Z,27.17
2022-09-30T05:08:06.482Z,24.52
2022-09-30T05:10:33.734Z,26.42
2022-09-30T05:13:00.890Z,30.52
2022-09-30T05:15:28.487Z,29.23
2022-09-30T05:17:55.636Z,30.05
2022-09-30T05:20:22.807Z,28.65
2022-09-30T05:22:55.177Z,25.77
2022-09-30T05:25:23.561Z,28.77
2022-09-30T05:27:51.118Z,24.92
2022-09-30T05:30:18.438Z,24.40
2022-09-30T05:32:46.376Z,24.05
2022-09-30T05:35:14.554Z,21.95
2022-09-30T05:37:41.880Z,21.73
2022-09-30T05:40:09.369Z,24.75
2022-09-30T05:42:37.024Z,22.45
2022-09-30T05:45:05.589Z,23.25
2022-09-30T05:47:33.202Z,21.95
2022-09-30T05:50:00.499Z,23.48
2022-09-30T05:52:28.400Z,23.52
2022-09-30T05:54:57.620Z,22.38
2022-09-30T05:57:25.645Z,21.13
2022-09-30T05:59:52.994Z,21.23
2022-09-30T06:02:20.276Z,20.13
2022-09-30T06:04:47.553Z,21.02
2022-09-30T06:07:14.771Z,20.50
2022-09-30T06:09:41.973Z,19.27
2022-09-30T06:12:10.126Z,18.10
2022-09-30T06:14:37.475Z,17.23
2022-09-30T06:17:06.490Z,16.10
2022-09-30T06:19:33.643Z,17.20
2022-09-30T06:22:01.597Z,18.20
2022-09-30T06:24:28.877Z,18.75
2022-09-30T06:26:56.073Z,18.15
2022-09-30T06:29:23.473Z,16.77
2022-09-30T06:31:50.744Z,18.38
2022-09-30T06:34:17.934Z,18.13
2022-09-30T06:36:45.209Z,17.85
2022-09-30T06:39:13.805Z,18.33
2022-09-30T06:41:43.945Z,18.10
2022-09-30T06:44:11.547Z,17.48
2022-09-30T06:46:48.401Z,19.23
2022-09-30T06:49:20.160Z,18.23
2022-09-30T06:51:47.311Z,17.60
2022-09-30T06:54:14.468Z,17.60
2022-09-30T06:56:42.043Z,17.42
2022-09-30T06:59:09.263Z,18.27
2022-09-30T07:01:36.697Z,17.30
2022-09-30T07:04:09.647Z,17.80
2022-09-30T07:06:38.880Z,18.55
2022-09-30T07:09:06.784Z,18.10
2022-09-30T07:11:34.117Z,18.73
2022-09-30T07:14:01.303Z,17.98
2022-09-30T07:16:28.505Z,18.10
2022-09-30T07:18:56.083Z,17.30
2022-09-30T07:21:23.315Z,17.58
2022-09-30T07:23:52.789Z,16.90
2022-09-30T07:26:21.366Z,17.55
2022-09-30T07:28:48.977Z,17.85
2022-09-30T07:31:38.955Z,18.30
2022-09-30T07:34:07.580Z,15.82
2022-09-30T07:36:35.757Z,16.58
2022-09-30T07:39:05.390Z,17.00
2022-09-30T07:41:32.775Z,15.70
2022-09-30T07:44:00.079Z,15.52
2022-09-30T07:46:28.939Z,16.42
2022-09-30T07:48:58.471Z,16.55
2022-09-30T07:51:33.420Z,16.05
2022-09-30T07:54:09.352Z,15.32
2022-09-30T07:57:08.286Z,15.55
2022-09-30T07:59:27.237Z,15.77
2022-09-30T08:01:54.934Z,15.82
2022-09-30T08:04:22.870Z,13.93
2022-09-30T08:06:51.649Z,16.15
2022-09-30T08:09:20.008Z,16.38
2022-09-30T08:11:47.779Z,17.05
2022-09-30T08:14:15.881Z,16.40
2022-09-30T08:16:43.440Z,17.73
2022-09-30T08:19:14.332Z,19.73
2022-09-30T08:21:41.497Z,19.90
2022-09-30T08:24:08.791Z,19.52
2022-09-30T08:26:35.950Z,20.38
2022-09-30T08:29:03.097Z,20.95
2022-09-30T08:31:30.498Z,18.92
2022-09-30T08:33:57.692Z,18.95
2022-09-30T08:36:25.697Z,20.45
2022-09-30T08:38:53.088Z,20.92
2022-09-30T08:41:29.250Z,20.20
2022-09-30T08:43:59.256Z,20.98
2022-09-30T08:46:37.187Z,20.17
2022-09-30T08:49:14.591Z,20.08
2022-09-30T08:51:48.247Z,18.40
2022-09-30T08:54:20.139Z,18.80
2022-09-30T08:56:48.001Z,18.65
2022-09-30T08:59:33.738Z,16.55
2022-09-30T09:02:21.192Z,17.80
2022-09-30T09:04:51.835Z,17.02
2022-09-30T09:07:18.935Z,18.80
2022-09-30T09:10:00.275Z,17.55
2022-09-30T09:12:38.389Z,18.55
2022-09-30T09:15:13.724Z,18.13
2022-09-30T09:17:54.170Z,17.73
2022-09-30T09:20:36.670Z,18.85
2022-09-30T09:23:04.561Z,18.25
2022-09-30T09:25:32.027Z,17.20
2022-09-30T09:28:03.635Z,18.27
2022-09-30T09:30:34.481Z,16.17
2022-09-30T09:33:04.122Z,17.73
2022-09-30T09:35:41.896Z,16.92
2022-09-30T09:38:25.771Z,19.65
2022-09-30T09:41:11.681Z,17.10
2022-09-30T09:43:43.966Z,16.38
2022-09-30T09:46:14.163Z,16.25
2022-09-30T09:48:41.451Z,16.98
2022-09-30T09:51:14.597Z,16.63
2022-09-30T09:53:46.169Z,17.38
2022-09-30T09:56:20.759Z,15.27
2022-09-30T09:59:06.300Z,17.10
2022-09-30T10:01:34.701Z,18.33
2022-09-30T10:04:16.026Z,18.52
2022-09-30T10:07:03.574Z,18.25
2022-09-30T10:09:37.551Z,17.20
2022-09-30T10:12:07.553Z,17.25
2022-09-30T10:14:35.271Z,17.17
2022-09-30T10:17:03.282Z,17.80
2022-09-30T10:19:32.159Z,19.02
2022-09-30T10:22:08.207Z,20.52
2022-09-30T10:24:36.578Z,21.40
2022-09-30T10:27:05.288Z,19.95
2022-09-30T10:29:34.383Z,20.13
2022-09-30T10:32:03.040Z,20.52
2022-09-30T10:34:30.195Z,20.58
2022-09-30T10:36:58.118Z,21.13
2022-09-30T10:39:30.167Z,21.23
2022-09-30T10:42:27.268Z,21.67
2022-09-30T10:44:54.595Z,20.98
2022-09-30T10:47:23.265Z,20.17
2022-09-30T10:49:53.394Z,20.33
2022-09-30T10:52:25.451Z,20.27
2022-09-30T10:54:56.949Z,20.27
2022-09-30T10:57:33.101Z,21.13
2022-09-30T11:00:01.410Z,21.80
2022-09-30T11:02:31.844Z,20.10
2022-09-30T11:05:05.061Z,23.30
2022-09-30T11:07:36.519Z,21.17
2022-09-30T11:10:08.731Z,21.30
2022-09-30T11:12:49.866Z,21.25
2022-09-30T11:15:22.977Z,20.55
2022-09-30T11:18:15.383Z,21.15
2022-09-30T11:20:44.376Z,19.85
2022-09-30T11:23:17.645Z,20.63
2022-09-30T11:25:55.690Z,21.30
2022-09-30T11:28:58.322Z,20.65
2022-09-30T11:31:42.371Z,19.65
2022-09-30T11:34:18.382Z,19.63
2022-09-30T11:36:45.891Z,20.38
2022-09-30T11:39:25.317Z,19.88
2022-09-30T11:42:12.841Z,18.52
2022-09-30T11:44:41.759Z,19.92
2022-09-30T11:47:27.891Z,19.25
2022-09-30T11:49:55.203Z,20.42
2022-09-30T11:52:22.330Z,19.10
2022-09-30T11:54:49.510Z,19.35
2022-09-30T11:57:16.647Z,19.83
2022-09-30T11:59:43.753Z,19.40
2022-09-30T12:02:20.116Z,20.25
2022-09-30T12:04:47.999Z,17.77
2022-09-30T12:07:18.601Z,19.20
2022-09-30T12:09:58.707Z,20.42
2022-09-30T12:12:25.872Z,18.40
2022-09-30T12:14:53.617Z,18.10
2022-09-30T12:17:32.690Z,18.30
2022-09-30T12:20:03.644Z,18.17
2022-09-30T12:24:57.930Z,17.67
2022-09-30T12:27:28.184Z,19.08
2022-09-30T12:30:17.942Z,17.98
2022-09-30T12:33:01.623Z,16.25
2022-09-30T12:35:29.030Z,18.80
2022-09-30T12:38:07.514Z,18.17
2022-09-30T12:40:53.282Z,18.05
2022-09-30T12:43:23.799Z,19.48
2022-09-30T12:45:57.210Z,18.33
2022-09-30T12:48:25.835Z,17.95
2022-09-30T12:50:54.734Z,17.77
2022-09-30T12:53:25.875Z,18.08
2022-09-30T12:55:53.262Z,18.40
2022-09-30T12:58:20.461Z,17.48
2022-09-30T13:01:11.163Z,18.52
2022-09-30T13:03:45.363Z,18.13
2022-09-30T13:06:15.382Z,18.38
2022-09-30T13:08:47.916Z,18.20
2022-09-30T13:11:34.124Z,17.15
2022-09-30T13:14:14.186Z,17.85
2022-09-30T13:17:03.413Z,18.70
2022-09-30T13:19:36.813Z,17.65
2022-09-30T13:22:30.405Z,17.75
2022-09-30T13:25:00.682Z,17.50
2022-09-30T13:27:45.225Z,17.58
2022-09-30T13:30:18.392Z,18.13
2022-09-30T13:32:47.988Z,18.67
2022-09-30T13:35:30.222Z,17.75
2022-09-30T13:38:15.504Z,18.35
2022-09-30T13:41:04.117Z,17.85
2022-09-30T13:43:34.613Z,17.20
2022-09-30T13:46:07.151Z,16.17
2022-09-30T13:48:36.208Z,17.33
2022-09-30T13:51:07.397Z,17.45
2022-09-30T13:53:44.673Z,17.33
2022-09-30T13:56:22.980Z,17.55
2022-09-30T13:59:16.767Z,16.85
2022-09-30T14:02:07.210Z,17.88
2022-09-30T14:04:34.759Z,17.60
2022-09-30T14:07:31.017Z,16.88
2022-09-30T14:10:14.041Z,18.38
2022-09-30T14:13:19.702Z,17.10
2022-09-30T14:16:12.207Z,17.60
2022-09-30T14:19:08.413Z,17.42
2022-09-30T14:21:35.640Z,17.52
2022-09-30T14:24:04.721Z,15.95
2022-09-30T14:26:40.901Z,17.67
2022-09-30T14:29:21.438Z,18.25
2022-09-30T14:31:49.183Z,17.35
2022-09-30T14:34:17.441Z,17.83
2022-09-30T14:36:45.243Z,17.65
2022-09-30T14:39:16.388Z,16.65
2022-09-30T14:41:54.762Z,16.95
2022-09-30T14:44:23.301Z,19.58
2022-09-30T14:46:51.451Z,20.08
2022-09-30T14:49:22.437Z,19.13
2022-09-30T14:54:28.829Z,19.95
2022-09-30T14:56:56.865Z,19.95
2022-09-30T14:59:27.135Z,20.60
2022-09-30T15:01:55.816Z,19.50
2022-09-30T15:04:26.287Z,18.88
2022-09-30T15:06:54.217Z,18.73
2022-09-30T15:09:32.635Z,20.27
2022-09-30T15:12:15.154Z,19.92
2022-09-30T15:14:52.674Z,22.05
2022-09-30T15:17:21.160Z,21.40
2022-09-30T15:19:50.302Z,21.52
2022-09-30T15:22:18.250Z,22.02
2022-09-30T15:24:46.857Z,22.67
2022-09-30T15:27:17.067Z,22.50
2022-09-30T15:30:04.595Z,21.65
2022-09-30T15:32:34.597Z,22.20
2022-09-30T15:35:05.995Z,22.00
2022-09-30T15:37:34.026Z,23.00
2022-09-30T15:40:21.028Z,23.17
2022-09-30T15:42:49.359Z,24.15
2022-09-30T15:45:22.642Z,26.15
2022-09-30T15:47:58.052Z,25.70
2022-09-30T15:50:45.990Z,27.05
2022-09-30T15:53:31.655Z,28.08
2022-09-30T15:56:16.495Z,28.58
2022-09-30T15:58:55.242Z,29.75
2022-09-30T16:01:25.056Z,29.88
2022-09-30T16:04:02.973Z,30.58
2022-09-30T16:06:32.829Z,31.48
2022-09-30T16:09:04.340Z,32.42
2022-09-30T16:11:31.506Z,33.08
2022-09-30T16:13:59.790Z,32.08
2022-09-30T16:16:28.872Z,32.20
2022-09-30T16:18:57.245Z,30.95
2022-09-30T16:21:44.953Z,30.70
2022-09-30T16:24:38.209Z,35.08
2022-09-30T16:27:22.393Z,33.00
2022-09-30T16:29:49.546Z,33.33
2022-09-30T16:32:16.733Z,32.78
2022-09-30T16:34:44.023Z,32.65
2022-09-30T16:37:12.458Z,36.22
2022-09-30T16:39:40.295Z,34.35
2022-09-30T16:42:07.821Z,36.60
2022-09-30T16:44:35.656Z,36.20
2022-09-30T16:47:03.045Z,36.22
2022-09-30T16:49:30.323Z,36.95
2022-09-30T16:51:57.566Z,34.65
2022-09-30T16:54:24.786Z,34.45
2022-09-30T16:56:52.069Z,34.38
2022-09-30T16:59:19.702Z,30.92
2022-09-30T17:01:46.905Z,30.98
2022-09-30T17:04:16.623Z,32.00
2022-09-30T17:06:44.517Z,30.38
2022-09-30T17:09:11.675Z,30.88
2022-09-30T17:11:39.070Z,31.90
2022-09-30T17:14:06.428Z,31.63
2022-09-30T17:16:34.205Z,30.52
2022-09-30T17:19:01.702Z,31.27
2022-09-30T17:21:28.926Z,31.70
2022-09-30T17:23:56.170Z,31.90
2022-09-30T17:26:23.846Z,30.75
2022-09-30T17:28:51.018Z,32.10
2022-09-30T17:31:18.281Z,35.53
2022-09-30T17:33:45.629Z,33.90
2022-09-30T17:36:14.053Z,32.75
2022-09-30T17:38:41.767Z,34.47
2022-09-30T17:41:30.181Z,34.67
2022-09-30T17:44:02.382Z,36.30
2022-09-30T17:46:40.107Z,33.58
2022-09-30T17:49:07.591Z,34.42
2022-09-30T17:51:35.455Z,35.22
2022-09-30T17:54:03.034Z,35.00
2022-09-30T17:56:30.191Z,35.22
2022-09-30T17:58:58.326Z,35.80
2022-09-30T18:01:25.800Z,36.03
2022-09-30T18:03:53.508Z,35.78
2022-09-30T18:06:20.976Z,36.35
2022-09-30T18:08:52.782Z,35.10
2022-09-30T18:11:20.982Z,37.58
2022-09-30T18:13:53.022Z,38.13
2022-09-30T18:16:20.440Z,37.13
2022-09-30T18:18:47.639Z,38.55
2022-09-30T18:21:14.888Z,41.42
2022-09-30T18:23:42.143Z,38.85
2022-09-30T18:26:09.297Z,39.47
2022-09-30T18:28:37.709Z,40.25
2022-09-30T18:31:05.863Z,39.55
2022-09-30T18:33:33.106Z,41.42
2022-09-30T18:36:06.685Z,41.15
2022-09-30T18:38:34.928Z,40.22
2022-09-30T18:41:02.258Z,39.13
2022-09-30T18:43:30.031Z,40.25
2022-09-30T18:45:58.119Z,38.42
2022-09-30T18:48:26.321Z,41.42
2022-09-30T18:50:53.934Z,39.55
2022-09-30T18:53:22.023Z,40.47
2022-09-30T18:55:49.645Z,39.47
2022-09-30T18:58:17.333Z,39.10
2022-09-30T19:00:45.034Z,40.67
2022-09-30T19:03:16.035Z,41.28
2022-09-30T19:05:43.474Z,37.70
2022-09-30T19:08:10.632Z,37.70
2022-09-30T19:10:42.151Z,34.78
2022-09-30T19:13:09.830Z,37.47
2022-09-30T19:15:38.309Z,37.10
2022-09-30T19:18:06.515Z,37.65
2022-09-30T19:20:37.467Z,38.85
2022-09-30T19:23:08.263Z,38.30
2022-09-30T19:25:35.417Z,34.15
2022-09-30T19:28:03.028Z,37.83
2022-09-30T19:30:30.210Z,38.30
2022-09-30T19:33:00.528Z,35.83
2022-09-30T19:35:38.386Z,35.67
2022-09-30T19:38:07.739Z,35.03
2022-09-30T19:40:35.071Z,35.03
2022-09-30T19:43:02.214Z,34.35
2022-09-30T19:45:29.445Z,36.50
2022-09-30T19:47:57.631Z,36.50
2022-09-30T19:50:26.185Z,35.72
2022-09-30T19:52:57.427Z,38.45
2022-09-30T19:55:25.709Z,37.15
2022-09-30T19:57:53.039Z,36.83
2022-09-30T20:00:20.388Z,40.03
2022-09-30T20:02:47.713Z,36.28
2022-09-30T20:05:18.377Z,37.83
2022-09-30T20:07:45.564Z,37.53
2022-09-30T20:10:12.856Z,36.78
2022-09-30T20:12:40.049Z,35.75
2022-09-30T20:15:26.480Z,37.58
2022-09-30T20:17:55.032Z,37.50
2022-09-30T20:20:34.601Z,36.97
2022-09-30T20:23:01.821Z,37.47
2022-09-30T20:25:31.463Z,35.60
2022-09-30T20:27:58.871Z,37.40
2022-09-30T20:30:29.799Z,38.33
2022-09-30T20:32:57.063Z,37.63
2022-09-30T20:35:24.682Z,36.47
2022-09-30T20:37:51.903Z,36.05
2022-09-30T20:40:19.055Z,36.85
2022-09-30T20:42:46.388Z,35.65
2022-09-30T20:45:14.118Z,36.53
2022-09-30T20:47:43.723Z,38.10
2022-09-30T20:50:12.876Z,37.80
2022-09-30T20:52:40.068Z,35.03
2022-09-30T20:55:08.049Z,37.25
2022-09-30T20:57:35.362Z,38.58
2022-09-30T21:00:02.574Z,38.00
2022-09-30T21:02:29.885Z,39.53
2022-09-30T21:11:42.582Z,38.80
2022-09-30T21:14:09.776Z,39.50
2022-09-30T21:16:36.974Z,39.53
2022-09-30T21:19:04.301Z,38.65
2022-09-30T21:21:31.756Z,39.20
2022-09-30T21:23:59.940Z,39.38
2022-09-30T21:26:27.575Z,39.53
2022-09-30T21:28:55.103Z,40.60
2022-09-30T21:31:24.803Z,40.30
2022-09-30T21:33:56.579Z,40.67
2022-09-30T21:36:24.273Z,40.95
2022-09-30T21:38:52.109Z,40.95
2022-09-30T21:41:19.941Z,42.35
2022-09-30T21:43:47.221Z,41.85
2022-09-30T21:46:15.305Z,42.17
2022-09-30T21:48:42.898Z,42.25
2022-09-30T21:51:10.750Z,43.80
2022-09-30T21:53:38.903Z,45.08
2022-09-30T21:56:07.048Z,46.25
2022-09-30T21:58:34.639Z,43.42
2022-09-30T22:01:02.833Z,45.55
2022-09-30T22:03:31.725Z,44.45
2022-09-30T22:06:00.203Z,44.65
2022-09-30T22:08:27.790Z,45.45
2022-09-30T22:10:54.994Z,46.50
2022-09-30T22:13:22.146Z,46.58
2022-09-30T22:15:49.358Z,45.35
2022-09-30T22:18:17.475Z,48.28
2022-09-30T22:20:45.091Z,48.30
2022-09-30T22:23:12.374Z,46.80
2022-09-30T22:25:40.578Z,48.42
2022-09-30T22:28:08.075Z,48.83
2022-09-30T22:30:35.406Z,50.55
2022-09-30T22:33:21.113Z,47.90
2022-09-30T22:36:07.097Z,49.95
2022-09-30T22:38:34.563Z,51.92
2022-09-30T22:41:01.860Z,52.15
2022-09-30T22:43:29.013Z,51.15
2022-09-30T22:46:03.487Z,51.10
2022-09-30T22:48:31.047Z,50.75
2022-09-30T22:50:58.995Z,51.58
2022-09-30T22:53:26.772Z,52.78
2022-09-30T22:55:54.006Z,54.15
2022-09-30T22:58:24.230Z,52.05
2022-09-30T23:00:58.802Z,48.30
2022-09-30T23:03:26.375Z,50.63
2022-09-30T23:05:54.069Z,47.92
2022-09-30T23:08:22.273Z,48.13
2022-09-30T23:10:49.873Z,47.88
2022-09-30T23:13:19.973Z,47.33
2022-09-30T23:15:50.500Z,49.53
2022-09-30T23:18:17.647Z,48.00
2022-09-30T23:20:53.994Z,48.03
2022-09-30T23:23:21.148Z,45.63
2022-09-30T23:25:48.303Z,47.28
2022-09-30T23:28:15.699Z,45.67
2022-09-30T23:30:42.946Z,46.50
2022-09-30T23:33:10.515Z,46.95
2022-09-30T23:35:37.808Z,47.67
2022-09-30T23:38:04.982Z,45.08
2022-09-30T23:40:32.687Z,44.95
2022-09-30T23:42:59.961Z,45.38
2022-09-30T23:45:27.141Z,45.50
2022-09-30T23:47:56.429Z,46.90
2022-09-30T23:50:25.515Z,45.10
2022-09-30T23:52:52.665Z,45.20
2022-09-30T23:55:19.797Z,44.63
2022-09-30T23:57:47.790Z,45.17
